Time;durP1;ratioP1;P1;durP2;ratioP2;P2;SDS_P1;SDS_P2;PMS_P1;PMS_P2;Temp;Humidity;BMP_temperature;BMP_pressure;BME280_temperature;BME280_humidity;BME280_pressure;Samples;Min_cycle;Max_cycle;Signal;HPM_P1;HPM_P2
2021/12/02 00:02:14;;;;;;;7.03;2.30;;;7.20;99.90;;;;;;5015318;28;20029;-59
2021/12/02 00:04:40;;;;;;;7.05;1.65;;;7.20;99.90;;;;;;5014346;28;20026;-59
2021/12/02 00:07:06;;;;;;;8.23;1.60;;;7.20;99.90;;;;;;5015581;28;20460;-59
2021/12/02 00:09:36;;;;;;;11.63;1.88;;;7.20;99.90;;;;;;5015239;28;20034;-56
2021/12/02 00:12:03;;;;;;;3.25;1.67;;;7.20;99.90;;;;;;5013766;28;20026;-59
2021/12/02 00:14:36;;;;;;;4.25;1.90;;;7.30;99.90;;;;;;5015015;28;20037;-57
2021/12/02 00:17:10;;;;;;;7.57;1.50;;;7.30;99.90;;;;;;5015300;28;20029;-59
2021/12/02 00:22:24;;;;;;;7.80;1.83;;;7.30;99.90;;;;;;5015423;28;20033;-57
2021/12/02 00:24:56;;;;;;;5.45;2.60;;;7.20;99.90;;;;;;5013963;28;20114;-58
2021/12/02 00:27:24;;;;;;;5.90;2.03;;;7.10;99.90;;;;;;5013697;28;20022;-57
2021/12/02 00:29:54;;;;;;;4.13;1.77;;;7.10;99.90;;;;;;5013847;28;20053;-57
2021/12/02 00:32:21;;;;;;;7.95;1.85;;;7.10;99.90;;;;;;5014666;28;20025;-59
2021/12/02 00:34:46;;;;;;;3.28;1.80;;;7.10;99.90;;;;;;5014755;28;20022;-59
2021/12/02 00:37:12;;;;;;;7.35;2.38;;;7.10;99.90;;;;;;5013469;28;20060;-57
2021/12/02 00:39:38;;;;;;;5.63;1.85;;;7.10;99.90;;;;;;5013292;28;20026;-60
2021/12/02 00:42:04;;;;;;;3.67;1.67;;;7.10;99.90;;;;;;5013536;28;20028;-60
2021/12/02 00:44:33;;;;;;;5.70;1.30;;;7.20;99.90;;;;;;5013251;28;20029;-59
2021/12/02 00:47:02;;;;;;;5.30;2.20;;;7.20;99.90;;;;;;5014457;28;20092;-60
2021/12/02 00:49:29;;;;;;;4.03;1.77;;;7.20;99.90;;;;;;5014505;28;20153;-59
2021/12/02 00:51:57;;;;;;;4.32;1.40;;;7.20;99.90;;;;;;5013151;28;20036;-59
2021/12/02 00:54:24;;;;;;;8.40;1.58;;;7.10;99.90;;;;;;5013294;28;20034;-59
2021/12/02 00:56:52;;;;;;;7.07;1.42;;;7.10;99.90;;;;;;5013165;28;20084;-59
2021/12/02 00:59:19;;;;;;;5.28;1.67;;;7.00;99.90;;;;;;5013302;28;20025;-59
2021/12/02 01:01:47;;;;;;;8.00;1.88;;;7.00;99.90;;;;;;5012984;28;20090;-57
2021/12/02 01:04:15;;;;;;;13.05;3.75;;;6.90;99.90;;;;;;5012861;28;20109;-58
2021/12/02 01:06:41;;;;;;;7.55;1.65;;;6.90;99.90;;;;;;5012409;28;20026;-58
2021/12/02 01:09:10;;;;;;;6.97;2.40;;;7.00;99.90;;;;;;5014009;28;20026;-57
2021/12/02 01:11:36;;;;;;;9.13;1.92;;;7.00;99.90;;;;;;5014101;28;20025;-60
2021/12/02 01:14:03;;;;;;;5.38;2.17;;;7.00;99.90;;;;;;5012820;28;20025;-59
2021/12/02 01:16:29;;;;;;;8.05;1.42;;;7.00;99.90;;;;;;5012692;28;20217;-59
2021/12/02 01:18:55;;;;;;;7.40;1.20;;;7.00;99.90;;;;;;5012691;28;20129;-60
2021/12/02 01:21:23;;;;;;;7.30;1.13;;;7.00;99.90;;;;;;5014216;28;20125;-56
2021/12/02 01:23:52;;;;;;;3.83;1.60;;;7.00;99.90;;;;;;5012619;28;20018;-56
2021/12/02 01:26:19;;;;;;;8.93;1.50;;;7.00;99.90;;;;;;5012662;28;20129;-60
2021/12/02 01:28:46;;;;;;;5.53;1.80;;;7.00;99.90;;;;;;5014140;28;20097;-58
2021/12/02 01:31:13;;;;;;;4.03;0.98;;;7.00;99.90;;;;;;5014150;28;20034;-60
2021/12/02 01:33:40;;;;;;;7.38;1.23;;;7.00;99.90;;;;;;5013713;28;20030;-58
2021/12/02 01:36:06;;;;;;;8.38;1.88;;;7.00;99.90;;;;;;5013738;28;20022;-59
2021/12/02 01:38:33;;;;;;;4.43;1.67;;;6.90;99.90;;;;;;5013949;28;20492;-58
2021/12/02 01:41:01;;;;;;;5.57;1.50;;;6.90;99.90;;;;;;5013576;28;20026;-52
2021/12/02 01:43:51;;;;;;;17.55;5.20;;;6.90;99.90;;;;;;5013641;28;20022;-52
2021/12/02 01:46:23;;;;;;;5.68;1.80;;;6.90;99.90;;;;;;5012458;28;20476;-53
2021/12/02 01:48:58;;;;;;;1.88;1.20;;;6.80;99.90;;;;;;5012755;28;20046;-52
2021/12/02 01:51:26;;;;;;;3.03;1.70;;;6.80;99.90;;;;;;5013361;28;20033;-53
2021/12/02 01:54:06;;;;;;;8.63;1.70;;;6.80;99.90;;;;;;5012291;28;20042;-53
2021/12/02 01:56:40;;;;;;;5.10;1.80;;;6.70;99.90;;;;;;5013897;28;20026;-52
2021/12/02 01:59:14;;;;;;;3.42;1.40;;;6.70;99.90;;;;;;5012267;28;20022;-53
2021/12/02 02:01:42;;;;;;;5.90;1.23;;;6.80;99.90;;;;;;5013210;28;20033;-53
2021/12/02 02:04:07;;;;;;;3.92;1.48;;;6.80;99.90;;;;;;5013560;28;20026;-54
2021/12/02 02:06:38;;;;;;;9.15;1.20;;;6.80;99.90;;;;;;5013773;28;20028;-54
2021/12/02 02:09:06;;;;;;;6.38;1.55;;;6.80;99.90;;;;;;5012338;28;20056;-56
2021/12/02 02:11:32;;;;;;;4.25;1.10;;;6.80;99.90;;;;;;5012475;28;20022;-55
2021/12/02 02:13:59;;;;;;;2.83;1.23;;;6.80;99.90;;;;;;5012475;28;20029;-56
2021/12/02 02:16:26;;;;;;;5.47;1.48;;;6.80;99.90;;;;;;5012510;28;20022;-54
2021/12/02 02:18:52;;;;;;;4.70;1.10;;;7.00;99.90;;;;;;5013775;28;20061;-53
2021/12/02 02:21:21;;;;;;;5.05;1.20;;;7.00;99.90;;;;;;5017308;28;20070;-52
2021/12/02 02:23:51;;;;;;;3.97;1.48;;;7.00;99.90;;;;;;5017102;28;20014;-53
2021/12/02 02:26:23;;;;;;;6.53;1.48;;;7.00;99.90;;;;;;5015957;28;20057;-52
2021/12/02 02:28:50;;;;;;;8.95;1.80;;;6.90;99.90;;;;;;5015894;28;20026;-55
2021/12/02 02:31:16;;;;;;;2.85;0.95;;;7.00;99.90;;;;;;5015784;28;20030;-52
2021/12/02 02:33:48;;;;;;;3.25;1.50;;;7.00;99.90;;;;;;5015997;28;20128;-53
2021/12/02 02:36:13;;;;;;;3.28;0.77;;;6.90;99.90;;;;;;5015854;28;20026;-52
2021/12/02 02:38:39;;;;;;;4.38;1.25;;;6.90;99.90;;;;;;5015693;28;20040;-55
2021/12/02 02:41:07;;;;;;;1.75;1.58;;;6.90;99.90;;;;;;5015867;28;20058;-54
2021/12/02 02:43:34;;;;;;;10.50;2.38;;;6.80;99.90;;;;;;5015478;28;20029;-54
2021/12/02 02:46:00;;;;;;;7.75;2.33;;;6.70;99.90;;;;;;5016347;28;20049;-54
2021/12/02 02:48:25;;;;;;;2.75;1.27;;;6.70;99.90;;;;;;5015482;28;20022;-56
2021/12/02 02:50:51;;;;;;;4.68;1.50;;;6.70;99.90;;;;;;5015465;28;20032;-55
2021/12/02 02:53:22;;;;;;;7.88;1.42;;;6.70;99.90;;;;;;5015681;28;20495;-55
2021/12/02 03:07:05;;;;;;;8.65;3.47;;;6.60;99.90;;;;;;5016415;28;20492;-53
2021/12/02 03:12:08;;;;;;;8.35;4.18;;;6.60;99.90;;;;;;5016501;28;20460;-56
2021/12/02 03:14:51;;;;;;;6.60;3.15;;;6.60;99.90;;;;;;5016325;28;20096;-57
2021/12/02 03:17:16;;;;;;;6.30;2.25;;;6.50;99.90;;;;;;5016628;28;20030;-53
2021/12/02 03:19:44;;;;;;;8.82;1.70;;;6.60;99.90;;;;;;5015208;28;20033;-57
2021/12/02 03:22:11;;;;;;;2.70;1.70;;;6.60;99.90;;;;;;5016063;28;20018;-58
2021/12/02 03:24:37;;;;;;;8.10;2.80;;;6.50;99.90;;;;;;5015134;28;20022;-59
2021/12/02 03:27:03;;;;;;;6.43;2.25;;;6.50;99.90;;;;;;5014607;28;20033;-59
2021/12/02 03:29:29;;;;;;;3.58;1.90;;;6.50;99.90;;;;;;5015960;28;20022;-56
2021/12/02 03:31:55;;;;;;;13.13;6.18;;;6.50;99.90;;;;;;5015331;28;20036;-59
2021/12/02 03:34:20;;;;;;;7.82;2.72;;;6.50;99.90;;;;;;5015871;28;20026;-59
2021/12/02 03:36:46;;;;;;;13.30;3.10;;;6.40;99.90;;;;;;5015861;28;20032;-59
2021/12/02 03:39:12;;;;;;;11.55;5.28;;;6.50;99.90;;;;;;5014416;28;20026;-58
2021/12/02 03:41:39;;;;;;;7.03;3.10;;;6.40;99.90;;;;;;5014499;28;20021;-58
2021/12/02 03:44:06;;;;;;;10.10;3.65;;;6.50;99.90;;;;;;5014856;28;20026;-59
2021/12/02 03:46:32;;;;;;;19.95;3.03;;;6.40;99.90;;;;;;5015802;28;20200;-53
2021/12/02 03:48:59;;;;;;;10.65;3.47;;;6.40;99.90;;;;;;5014746;28;20018;-55
2021/12/02 03:51:26;;;;;;;10.80;5.30;;;6.40;99.90;;;;;;5014653;28;20022;-57
2021/12/02 03:53:52;;;;;;;4.68;2.60;;;6.40;99.90;;;;;;5014610;28;20033;-53
2021/12/02 03:56:18;;;;;;;10.20;3.42;;;6.40;99.90;;;;;;5014322;28;20022;-53
2021/12/02 03:58:45;;;;;;;14.93;4.63;;;6.40;99.90;;;;;;5014465;28;20042;-54
2021/12/02 04:01:12;;;;;;;6.40;2.67;;;6.40;99.90;;;;;;5015555;28;20468;-53
2021/12/02 04:03:38;;;;;;;4.00;2.65;;;6.30;99.90;;;;;;5014015;28;20112;-55
2021/12/02 04:06:05;;;;;;;6.05;2.38;;;6.40;99.90;;;;;;5014346;28;20064;-54
2021/12/02 04:08:40;;;;;;;8.38;2.22;;;6.30;99.90;;;;;;5013984;28;20471;-55
2021/12/02 04:11:30;;;;;;;7.18;3.03;;;6.30;99.90;;;;;;5014994;28;20029;-56
2021/12/02 04:17:04;;;;;;;6.57;3.65;;;6.30;99.90;;;;;;4973956;28;20042;-59
2021/12/02 04:19:30;;;;;;;13.75;4.63;;;6.30;99.90;;;;;;4957737;28;20621;-59
2021/12/02 04:21:58;;;;;;;11.52;4.53;;;6.40;99.90;;;;;;4993418;28;20117;-59
2021/12/02 04:24:25;;;;;;;11.18;3.08;;;6.30;99.90;;;;;;5013980;28;20026;-57
2021/12/02 04:26:50;;;;;;;4.55;1.85;;;6.30;99.90;;;;;;5014864;28;20014;-57
2021/12/02 04:29:16;;;;;;;2.75;1.42;;;6.30;99.90;;;;;;5014498;28;20033;-56
2021/12/02 04:31:43;;;;;;;2.75;1.00;;;6.30;99.90;;;;;;5014723;28;20109;-57
2021/12/02 04:34:11;;;;;;;5.28;1.70;;;6.30;99.90;;;;;;5014963;28;20117;-59
2021/12/02 04:36:37;;;;;;;4.32;1.13;;;6.30;99.90;;;;;;5013776;28;20026;-57
2021/12/02 04:39:03;;;;;;;11.25;1.77;;;6.40;99.90;;;;;;5015071;28;20033;-57
2021/12/02 04:41:29;;;;;;;7.93;2.17;;;6.40;99.90;;;;;;5013548;28;20022;-59
2021/12/02 04:43:54;;;;;;;11.98;4.07;;;6.40;99.90;;;;;;5012917;28;20025;-60
2021/12/02 04:46:20;;;;;;;6.25;1.70;;;6.50;99.90;;;;;;5013267;28;20152;-57
2021/12/02 04:48:45;;;;;;;3.92;1.67;;;6.50;99.90;;;;;;5014477;28;20026;-55
2021/12/02 04:51:11;;;;;;;6.38;1.20;;;6.50;99.90;;;;;;5013202;28;20057;-56
2021/12/02 04:53:37;;;;;;;3.75;1.30;;;6.50;99.90;;;;;;5014200;28;20042;-56
2021/12/02 04:56:03;;;;;;;6.05;1.83;;;6.50;99.90;;;;;;5014616;28;20032;-56
2021/12/02 04:58:29;;;;;;;6.68;1.58;;;6.50;99.90;;;;;;5014588;28;20032;-59
2021/12/02 05:00:54;;;;;;;5.15;1.73;;;6.40;99.90;;;;;;5014175;28;20026;-55
2021/12/02 05:03:20;;;;;;;2.08;0.82;;;6.40;99.90;;;;;;5012957;28;20022;-54
2021/12/02 05:05:46;;;;;;;6.32;1.65;;;6.40;99.90;;;;;;5014480;28;20026;-57
2021/12/02 05:08:11;;;;;;;2.75;1.25;;;6.40;99.90;;;;;;5013254;28;20026;-58
2021/12/02 05:10:37;;;;;;;3.08;1.00;;;6.30;99.90;;;;;;5013217;28;20029;-58
2021/12/02 05:13:03;;;;;;;2.22;1.27;;;6.30;99.90;;;;;;5012815;28;20022;-53
2021/12/02 05:15:28;;;;;;;4.03;1.60;;;6.30;99.90;;;;;;5012834;28;20428;-53
2021/12/02 05:17:54;;;;;;;4.93;1.27;;;6.30;99.90;;;;;;5012733;28;20041;-57
2021/12/02 05:20:20;;;;;;;5.25;1.02;;;6.40;99.90;;;;;;5013920;28;20061;-58
2021/12/02 05:22:46;;;;;;;5.88;1.27;;;6.30;99.90;;;;;;5013799;28;20057;-59
2021/12/02 05:25:12;;;;;;;7.00;1.33;;;6.40;99.90;;;;;;5012758;28;20026;-55
2021/12/02 05:27:37;;;;;;;7.45;1.42;;;6.50;99.90;;;;;;5012887;28;20116;-55
2021/12/02 05:30:04;;;;;;;4.88;1.00;;;6.50;99.90;;;;;;5013849;28;20396;-57
2021/12/02 05:32:30;;;;;;;5.28;1.30;;;6.50;99.90;;;;;;5013736;28;20045;-56
2021/12/02 05:34:57;;;;;;;3.33;0.90;;;6.50;99.90;;;;;;5013861;28;20025;-53
2021/12/02 05:37:23;;;;;;;7.18;1.15;;;6.50;99.90;;;;;;5012496;28;20026;-56
2021/12/02 05:39:49;;;;;;;6.32;1.40;;;6.60;99.90;;;;;;5014349;28;20030;-54
2021/12/02 05:42:15;;;;;;;4.93;1.20;;;6.50;99.90;;;;;;5012769;28;20021;-56
2021/12/02 05:44:40;;;;;;;2.42;1.02;;;6.60;99.90;;;;;;5012751;28;20094;-58
2021/12/02 05:47:06;;;;;;;3.60;1.17;;;6.60;99.90;;;;;;5012542;28;20022;-59
2021/12/02 05:49:32;;;;;;;7.00;1.23;;;6.80;99.90;;;;;;5012913;28;20030;-57
2021/12/02 05:51:58;;;;;;;8.85;1.00;;;6.70;99.90;;;;;;5012584;28;20022;-58
2021/12/02 05:54:23;;;;;;;3.42;1.40;;;6.70;99.90;;;;;;5013189;28;20041;-59
2021/12/02 05:56:49;;;;;;;4.65;1.88;;;6.70;99.90;;;;;;5013597;28;20034;-54
2021/12/02 05:59:14;;;;;;;5.63;1.30;;;6.80;99.90;;;;;;5012491;28;20072;-56
2021/12/02 06:01:43;;;;;;;3.97;1.30;;;6.80;99.90;;;;;;5012269;28;20026;-54
2021/12/02 06:04:10;;;;;;;5.75;1.10;;;6.90;99.90;;;;;;5013468;28;20025;-58
2021/12/02 06:06:36;;;;;;;4.28;1.30;;;6.90;99.90;;;;;;5012206;28;20080;-56
2021/12/02 06:09:02;;;;;;;3.92;1.25;;;6.90;99.90;;;;;;5013497;28;20026;-55
2021/12/02 06:11:28;;;;;;;3.95;1.38;;;6.80;99.90;;;;;;5013442;28;20022;-55
2021/12/02 06:13:54;;;;;;;2.03;1.58;;;6.70;99.90;;;;;;5012708;28;20025;-56
2021/12/02 06:16:21;;;;;;;1.90;1.45;;;6.70;99.90;;;;;;5013490;28;20069;-59
2021/12/02 06:18:47;;;;;;;2.50;1.00;;;6.80;99.90;;;;;;5012967;28;20030;-53
2021/12/02 06:21:12;;;;;;;5.53;1.70;;;6.70;99.90;;;;;;5013312;28;20034;-54
2021/12/02 06:23:40;;;;;;;4.93;1.80;;;6.70;99.90;;;;;;5014233;28;20033;-53
2021/12/02 06:26:06;;;;;;;6.30;2.70;;;6.50;99.90;;;;;;5012022;28;20040;-54
2021/12/02 06:28:32;;;;;;;8.25;3.53;;;6.40;99.90;;;;;;5012133;28;20057;-57
2021/12/02 06:31:01;;;;;;;12.80;4.53;;;6.40;99.90;;;;;;5012100;28;20053;-57
2021/12/02 06:33:27;;;;;;;5.65;1.88;;;6.40;99.90;;;;;;5012304;28;20022;-57
2021/12/02 06:35:52;;;;;;;10.02;4.50;;;6.40;99.90;;;;;;5012097;28;20103;-58
2021/12/02 06:38:18;;;;;;;14.13;6.10;;;6.40;99.90;;;;;;5013246;28;20041;-58
2021/12/02 06:40:45;;;;;;;7.13;3.05;;;6.40;99.90;;;;;;5013079;28;20026;-58
2021/12/02 06:43:13;;;;;;;6.30;1.77;;;6.30;99.90;;;;;;5013549;28;20074;-57
2021/12/02 06:45:39;;;;;;;6.15;2.03;;;6.30;99.90;;;;;;5013522;28;20028;-58
2021/12/02 06:48:05;;;;;;;23.38;6.65;;;6.30;99.90;;;;;;5013525;28;20022;-54
2021/12/02 06:50:33;;;;;;;3.33;2.10;;;6.30;99.90;;;;;;5012075;28;20053;-57
2021/12/02 06:52:59;;;;;;;7.15;3.47;;;6.40;99.90;;;;;;5011518;28;20030;-57
2021/12/02 06:55:24;;;;;;;12.18;4.78;;;6.40;99.90;;;;;;5011778;28;20057;-55
2021/12/02 06:57:50;;;;;;;8.43;2.90;;;6.30;99.90;;;;;;5012604;28;20121;-58
2021/12/02 07:00:18;;;;;;;14.02;5.65;;;6.30;99.90;;;;;;5011695;28;20022;-53
2021/12/02 07:02:44;;;;;;;7.22;3.65;;;6.30;99.90;;;;;;5011632;28;20022;-53
2021/12/02 07:05:12;;;;;;;10.40;5.15;;;6.20;99.90;;;;;;5013702;28;20024;-54
2021/12/02 07:07:38;;;;;;;7.32;4.18;;;6.20;99.90;;;;;;5016444;28;20069;-57
2021/12/02 07:10:22;;;;;;;6.65;3.15;;;6.10;99.90;;;;;;5016536;28;20033;-56
2021/12/02 07:12:54;;;;;;;4.25;2.88;;;6.10;99.90;;;;;;5016623;28;20503;-53
2021/12/02 07:15:24;;;;;;;4.18;1.00;;;6.10;99.90;;;;;;5015043;28;20032;-54
2021/12/02 07:17:55;;;;;;;4.13;1.38;;;6.20;99.90;;;;;;5016356;28;20029;-57
2021/12/02 07:20:21;;;;;;;5.80;2.63;;;6.20;99.90;;;;;;5016547;28;20022;-53
2021/12/02 07:22:47;;;;;;;5.22;2.70;;;6.10;99.90;;;;;;5014781;28;20072;-55
2021/12/02 07:25:13;;;;;;;4.00;1.40;;;6.10;99.90;;;;;;5016069;28;20030;-54
2021/12/02 07:27:39;;;;;;;2.63;0.77;;;6.10;99.90;;;;;;5015015;28;20118;-55
2021/12/02 07:30:06;;;;;;;5.35;1.67;;;6.20;99.90;;;;;;5014871;28;20025;-57
2021/12/02 07:32:37;;;;;;;4.20;2.65;;;6.10;99.90;;;;;;5016175;28;20498;-56
2021/12/02 07:35:08;;;;;;;2.47;2.22;;;6.20;99.90;;;;;;5015933;28;20056;-56
2021/12/02 07:37:34;;;;;;;3.97;2.77;;;6.20;99.90;;;;;;5016004;28;20061;-56
2021/12/02 07:40:00;;;;;;;6.43;3.75;;;6.20;99.90;;;;;;5014450;28;20022;-53
2021/12/02 07:42:26;;;;;;;3.63;1.60;;;6.20;99.90;;;;;;5014460;28;20072;-52
2021/12/02 07:44:53;;;;;;;1.73;1.52;;;6.10;99.90;;;;;;5014581;28;20021;-59
2021/12/02 07:47:20;;;;;;;7.03;1.70;;;6.10;99.90;;;;;;5015795;28;20029;-54
2021/12/02 07:49:49;;;;;;;4.72;2.83;;;6.00;99.90;;;;;;5016028;28;20061;-53
2021/12/02 07:52:18;;;;;;;7.10;4.50;;;6.10;99.90;;;;;;5014329;28;20030;-55
2021/12/02 07:54:45;;;;;;;4.03;2.70;;;6.00;99.90;;;;;;5014393;28;20168;-53
2021/12/02 07:57:14;;;;;;;6.88;3.28;;;6.00;99.90;;;;;;5014313;28;20033;-58
2021/12/02 07:59:40;;;;;;;6.35;2.08;;;6.00;99.90;;;;;;5015136;28;20026;-56
2021/12/02 08:02:10;;;;;;;4.80;1.90;;;5.90;99.90;;;;;;5015272;28;20107;-55
2021/12/02 08:04:36;;;;;;;22.88;10.32;;;6.00;99.90;;;;;;5014596;28;20065;-56
2021/12/02 08:07:02;;;;;;;43.42;14.60;;;6.00;99.90;;;;;;5014113;28;20045;-56
2021/12/02 08:09:27;;;;;;;75.88;23.02;;;6.00;99.90;;;;;;5015329;28;20370;-57
2021/12/02 08:11:54;;;;;;;12.63;5.38;;;6.00;99.90;;;;;;5015457;28;20049;-59
2021/12/02 08:14:19;;;;;;;6.22;2.80;;;6.00;99.90;;;;;;5015274;28;20018;-58
2021/12/02 08:16:45;;;;;;;7.20;3.60;;;6.00;99.90;;;;;;5013676;28;20072;-59
2021/12/02 08:19:11;;;;;;;8.43;5.03;;;6.00;99.90;;;;;;5013819;28;20022;-55
2021/12/02 08:21:37;;;;;;;4.75;3.70;;;6.10;99.90;;;;;;5014997;28;20105;-57
2021/12/02 08:24:04;;;;;;;13.82;7.85;;;6.10;99.90;;;;;;5013585;28;20026;-53
2021/12/02 08:26:31;;;;;;;8.55;3.65;;;6.10;99.90;;;;;;5014375;28;20026;-55
2021/12/02 08:28:57;;;;;;;6.43;4.97;;;6.10;99.90;;;;;;5015201;28;20097;-53
2021/12/02 08:31:22;;;;;;;7.25;4.00;;;6.20;99.90;;;;;;5014789;28;20109;-52
2021/12/02 08:33:51;;;;;;;5.57;3.70;;;6.20;99.90;;;;;;5013458;28;20022;-53
2021/12/02 08:36:18;;;;;;;4.88;3.10;;;6.30;99.90;;;;;;5014722;28;20025;-51
2021/12/02 08:38:46;;;;;;;4.95;3.50;;;6.30;99.90;;;;;;5014645;28;20484;-52
2021/12/02 08:41:13;;;;;;;6.38;3.60;;;6.30;99.90;;;;;;5014599;28;20022;-53
2021/12/02 08:43:39;;;;;;;10.27;3.35;;;6.30;99.90;;;;;;5014481;28;20068;-52
2021/12/02 08:46:04;;;;;;;7.57;4.20;;;6.30;99.90;;;;;;5013350;28;20018;-52
2021/12/02 08:48:30;;;;;;;5.10;2.45;;;6.40;99.90;;;;;;5013367;28;20228;-52
2021/12/02 08:50:56;;;;;;;6.05;3.40;;;6.60;99.90;;;;;;5013567;28;20033;-58
2021/12/02 08:53:22;;;;;;;5.70;1.48;;;6.60;99.90;;;;;;5013215;28;20040;-57
2021/12/02 08:55:48;;;;;;;3.55;2.00;;;6.70;99.90;;;;;;5013097;28;20030;-58
2021/12/02 08:58:13;;;;;;;2.47;1.85;;;6.80;99.90;;;;;;5014626;28;20026;-56
2021/12/02 09:00:40;;;;;;;1.45;1.33;;;6.70;99.90;;;;;;5014191;28;20049;-54
2021/12/02 09:03:12;;;;;;;2.10;1.35;;;6.80;99.90;;;;;;5012889;28;20029;-59
2021/12/02 09:05:39;;;;;;;1.88;1.33;;;6.80;99.90;;;;;;5014163;28;20049;-56
2021/12/02 09:08:05;;;;;;;4.13;1.30;;;6.80;99.90;;;;;;5012919;28;20098;-58
2021/12/02 09:10:31;;;;;;;3.15;1.42;;;6.80;99.90;;;;;;5013163;28;20038;-57
2021/12/02 09:12:57;;;;;;;3.53;1.60;;;6.70;99.90;;;;;;5012819;28;20053;-57
2021/12/02 09:15:23;;;;;;;2.70;1.83;;;6.80;99.90;;;;;;5012762;28;20030;-57
2021/12/02 09:17:50;;;;;;;4.80;1.38;;;6.80;99.90;;;;;;5012841;28;20061;-55
2021/12/02 09:20:16;;;;;;;3.90;1.60;;;6.70;99.90;;;;;;5012649;28;20030;-59
2021/12/02 09:22:44;;;;;;;1.60;0.82;;;6.80;99.90;;;;;;5014194;28;20022;-60
2021/12/02 09:25:10;;;;;;;1.42;1.23;;;7.00;99.90;;;;;;5012863;28;20369;-58
2021/12/02 09:27:36;;;;;;;2.90;1.80;;;7.00;99.90;;;;;;5013623;28;20480;-59
2021/12/02 09:30:04;;;;;;;2.17;1.92;;;6.90;99.90;;;;;;5013641;28;20029;-59
2021/12/02 09:32:30;;;;;;;4.50;2.90;;;6.90;99.90;;;;;;5013923;28;20388;-56
2021/12/02 09:34:55;;;;;;;3.38;2.10;;;6.80;99.90;;;;;;5013774;28;20026;-60
2021/12/02 09:37:21;;;;;;;3.67;2.00;;;6.80;99.90;;;;;;5013739;28;20037;-54
2021/12/02 09:39:47;;;;;;;4.15;1.60;;;6.80;99.90;;;;;;5013663;28;20029;-57
2021/12/02 09:42:14;;;;;;;5.60;1.80;;;6.70;99.90;;;;;;5012413;28;20022;-52
2021/12/02 09:44:40;;;;;;;3.90;2.05;;;6.70;99.90;;;;;;5013924;28;20030;-54
2021/12/02 09:47:06;;;;;;;3.25;1.98;;;6.70;99.90;;;;;;5013894;28;20040;-53
2021/12/02 09:49:33;;;;;;;4.50;2.03;;;6.60;99.90;;;;;;5012368;28;20053;-53
2021/12/02 09:52:03;;;;;;;4.93;1.38;;;6.60;99.90;;;;;;5012356;28;20040;-55
2021/12/02 09:54:32;;;;;;;1.80;1.30;;;6.80;99.90;;;;;;5013910;28;20033;-52
2021/12/02 09:57:04;;;;;;;4.35;1.60;;;7.20;99.90;;;;;;5012684;28;20026;-57
2021/12/02 10:02:07;;;;;;;4.00;1.63;;;7.50;99.90;;;;;;5013265;28;20026;-59
2021/12/02 10:04:39;;;;;;;4.45;1.92;;;7.60;99.90;;;;;;5013465;28;20034;-59
2021/12/02 10:07:16;;;;;;;1.63;1.35;;;7.70;99.90;;;;;;5013758;28;20049;-54
2021/12/02 10:10:11;;;;;;;1.98;1.15;;;7.60;99.90;;;;;;5013731;28;20072;-54
2021/12/02 10:12:47;;;;;;;6.00;2.35;;;7.60;99.90;;;;;;5013337;28;20079;-56
2021/12/02 10:15:15;;;;;;;7.28;1.38;;;7.50;99.90;;;;;;5013945;28;20093;-56
2021/12/02 10:17:52;;;;;;;1.70;1.45;;;7.50;99.90;;;;;;5012423;28;20476;-56
2021/12/02 10:20:44;;;;;;;4.65;1.20;;;7.40;99.90;;;;;;5012302;28;20493;-59
2021/12/02 10:23:23;;;;;;;2.83;1.50;;;7.60;99.90;;;;;;5012049;28;20113;-56
2021/12/02 10:25:56;;;;;;;3.95;1.00;;;7.70;99.90;;;;;;5012010;28;20029;-56
2021/12/02 10:28:22;;;;;;;2.28;1.27;;;7.90;99.90;;;;;;5013621;28;20044;-56
2021/12/02 10:30:51;;;;;;;2.30;1.10;;;8.10;99.90;;;;;;5012246;28;20026;-57
2021/12/02 10:33:38;;;;;;;2.67;1.02;;;8.30;99.90;;;;;;5013104;28;20026;-58
2021/12/02 10:36:07;;;;;;;5.13;2.72;;;8.50;99.90;;;;;;5012258;28;20037;-59
2021/12/02 10:38:39;;;;;;;4.80;1.67;;;8.70;99.90;;;;;;5013265;28;20026;-58
2021/12/02 10:41:10;;;;;;;7.85;2.63;;;9.00;99.90;;;;;;5016917;28;20057;-53
2021/12/02 10:43:56;;;;;;;2.13;1.65;;;9.10;99.90;;;;;;5016951;28;20025;-56
2021/12/02 10:46:22;;;;;;;8.80;2.42;;;9.30;99.90;;;;;;5015371;28;20099;-54
2021/12/02 10:48:50;;;;;;;12.23;4.18;;;9.30;99.90;;;;;;5015570;28;20026;-57
2021/12/02 10:51:46;;;;;;;10.07;3.22;;;9.30;99.90;;;;;;5016766;28;20030;-55
2021/12/02 10:54:18;;;;;;;7.07;1.98;;;9.40;99.90;;;;;;5017437;28;20041;-54
2021/12/02 10:56:50;;;;;;;3.30;2.38;;;9.30;99.90;;;;;;5016310;28;20057;-53
2021/12/02 10:59:27;;;;;;;8.55;4.72;;;9.20;99.90;;;;;;5016810;28;20054;-52
2021/12/02 11:01:55;;;;;;;3.78;2.20;;;8.90;99.90;;;;;;5016095;28;20088;-53
2021/12/02 11:04:22;;;;;;;3.03;1.88;;;8.90;99.90;;;;;;5015154;28;20018;-55
2021/12/02 11:06:49;;;;;;;4.22;1.98;;;8.70;99.90;;;;;;5015175;28;20118;-56
2021/12/02 11:09:24;;;;;;;5.28;2.58;;;8.60;99.90;;;;;;5015195;28;20381;-55
2021/12/02 11:12:11;;;;;;;2.70;1.90;;;8.40;99.90;;;;;;5015093;28;20065;-55
2021/12/02 11:14:43;;;;;;;2.55;1.48;;;8.30;99.90;;;;;;5016449;28;20030;-56
2021/12/02 11:17:15;;;;;;;3.05;1.75;;;8.30;99.90;;;;;;5015891;28;20026;-55
2021/12/02 11:19:49;;;;;;;3.03;1.60;;;8.20;99.90;;;;;;5014870;28;20120;-56
2021/12/02 11:22:18;;;;;;;5.30;2.22;;;8.20;99.90;;;;;;5016310;28;20069;-59
2021/12/02 11:24:47;;;;;;;4.10;2.22;;;8.30;99.90;;;;;;5015291;28;20025;-51
2021/12/02 11:27:21;;;;;;;3.85;1.55;;;8.20;99.90;;;;;;5014895;28;20026;-54
2021/12/02 11:30:03;;;;;;;2.08;1.65;;;8.30;99.90;;;;;;5015058;28;20030;-54
2021/12/02 11:32:30;;;;;;;;;;;8.40;99.90;;;;;;5015124;28;20030;-54
2021/12/02 11:35:15;;;;;;;2.25;1.40;;;8.50;99.90;;;;;;5015925;28;19912;-53
2021/12/02 11:37:43;;;;;;;4.25;1.63;;;8.50;99.90;;;;;;5016271;28;20029;-55
2021/12/02 11:40:31;;;;;;;2.72;1.63;;;8.60;99.90;;;;;;5014773;28;20034;-52
2021/12/02 11:42:57;;;;;;;2.30;1.45;;;8.60;99.90;;;;;;5014610;28;20492;-52
2021/12/02 11:45:24;;;;;;;2.63;1.45;;;8.50;99.90;;;;;;5015897;28;20029;-52
2021/12/02 11:47:52;;;;;;;5.70;2.28;;;8.50;99.90;;;;;;5015725;28;20028;-53
2021/12/02 11:50:19;;;;;;;4.78;2.08;;;8.40;99.90;;;;;;5015603;28;20034;-54
2021/12/02 11:52:46;;;;;;;5.15;1.92;;;8.40;99.90;;;;;;5013722;28;20033;-59
2021/12/02 11:55:16;;;;;;;5.40;2.78;;;8.30;99.90;;;;;;5014302;28;20048;-53
2021/12/02 11:57:42;;;;;;;5.55;2.53;;;8.20;99.90;;;;;;5014517;28;20029;-58
2021/12/02 12:00:14;;;;;;;7.75;3.58;;;8.10;99.90;;;;;;5014412;28;20030;-57
2021/12/02 12:02:47;;;;;;;;;;;8.00;99.90;;;;;;5015759;28;20104;-53
2021/12/02 12:05:14;;;;;;;2.40;1.50;;;8.10;99.90;;;;;;5015692;28;20408;-53
2021/12/02 12:07:42;;;;;;;2.33;2.00;;;8.30;99.90;;;;;;5014968;28;20045;-51
2021/12/02 12:10:12;;;;;;;2.10;1.55;;;8.30;99.90;;;;;;5014042;28;20029;-51
2021/12/02 12:12:42;;;;;;;4.03;1.77;;;8.10;99.90;;;;;;5014598;28;20120;-53
2021/12/02 12:15:32;;;;;;;2.20;1.40;;;8.00;99.90;;;;;;5015224;28;20018;-56
2021/12/02 12:17:59;;;;;;;1.88;1.20;;;8.00;99.90;;;;;;5013985;28;20029;-52
2021/12/02 12:20:51;;;;;;;4.47;2.10;;;8.00;99.90;;;;;;5015326;28;20080;-57
2021/12/02 12:23:44;;;;;;;3.00;1.73;;;7.90;99.90;;;;;;5014687;28;20018;-52
2021/12/02 12:26:50;;;;;;;9.77;3.88;;;8.00;99.90;;;;;;5071951;28;20383;-55
2021/12/02 12:29:17;;;;;;;1.95;1.23;;;8.00;99.90;;;;;;5070228;28;20028;-57
2021/12/02 12:31:50;;;;;;;4.82;1.90;;;8.10;99.90;;;;;;5070464;28;20094;-54
2021/12/02 12:34:53;;;;;;;5.32;1.80;;;8.10;99.90;;;;;;5050875;28;20072;-56
2021/12/02 12:37:22;;;;;;;11.05;4.47;;;8.10;99.90;;;;;;5050654;28;20079;-58
2021/12/02 12:40:06;;;;;;;8.77;2.95;;;8.20;99.90;;;;;;5050778;28;20049;-52
2021/12/02 12:42:32;;;;;;;4.65;2.47;;;8.20;99.90;;;;;;5049685;28;20100;-54
2021/12/02 12:44:59;;;;;;;6.85;3.55;;;8.20;99.90;;;;;;5050518;28;20021;-51
2021/12/02 12:47:58;;;;;;;7.32;3.55;;;8.50;99.90;;;;;;5050679;28;20018;-57
2021/12/02 12:50:40;;;;;;;5.47;2.38;;;8.50;99.90;;;;;;5027586;28;20025;-56
2021/12/02 12:53:06;;;;;;;3.47;2.17;;;8.50;99.90;;;;;;5050236;28;20022;-56
2021/12/02 12:55:49;;;;;;;8.60;3.67;;;8.40;99.90;;;;;;5050297;28;20071;-58
2021/12/02 12:58:26;;;;;;;2.85;1.75;;;8.30;99.90;;;;;;5048938;28;20026;-53
2021/12/02 13:01:02;;;;;;;1.85;1.48;;;8.20;99.90;;;;;;5048927;28;20029;-54
2021/12/02 13:03:40;;;;;;;7.25;1.52;;;8.10;99.90;;;;;;5050048;28;20025;-56
2021/12/02 13:06:19;;;;;;;6.82;2.60;;;8.10;99.90;;;;;;5050004;28;20036;-56
2021/12/02 13:09:07;;;;;;;6.95;3.28;;;7.90;99.90;;;;;;5048739;28;20017;-56
2021/12/02 13:11:34;;;;;;;2.38;1.73;;;7.90;99.90;;;;;;5050017;28;20055;-52
2021/12/02 13:14:04;;;;;;;5.75;1.88;;;7.90;99.90;;;;;;5048594;28;20022;-55
2021/12/02 13:16:29;;;;;;;4.10;1.73;;;7.90;99.90;;;;;;5048790;28;20048;-57
2021/12/02 13:19:12;;;;;;;2.60;1.23;;;8.00;99.90;;;;;;5049744;28;20057;-53
2021/12/02 13:21:39;;;;;;;1.88;1.38;;;8.10;99.90;;;;;;5049631;28;20025;-54
2021/12/02 13:24:08;;;;;;;3.28;1.38;;;8.20;99.90;;;;;;5075370;22;20045;-55
2021/12/02 13:26:54;;;;;;;2.63;1.08;;;8.30;99.90;;;;;;5029894;28;20029;-56
2021/12/02 13:29:22;;;;;;;5.38;1.48;;;8.20;99.90;;;;;;5030034;28;20013;-55